sensor_id;sensor_type;location;lat;lon;timestamp;P1;durP1;ratioP1;P2;durP2;ratioP2
37527;SDS011;23372;52.050;4.810;2023-10-31T00:02:18;5.10;;;0.90;;
37527;SDS011;23372;52.050;4.810;2023-10-31T00:04:45;8.73;;;2.03;;
37527;SDS011;23372;52.050;4.810;2023-10-31T00:07:10;9.17;;;1.40;;
37527;SDS011;23372;52.050;4.810;2023-10-31T00:09:36;6.23;;;1.70;;
37527;SDS011;23372;52.050;4.810;2023-10-31T00:12:04;8.27;;;2.90;;
37527;SDS011;23372;52.050;4.810;2023-10-31T00:14:30;8.63;;;2.63;;
37527;SDS011;23372;52.050;4.810;2023-10-31T00:16:55;7.27;;;3.40;;
37527;SDS011;23372;52.050;4.810;2023-10-31T00:19:21;14.67;;;4.80;;
37527;SDS011;23372;52.050;4.810;2023-10-31T00:21:46;15.03;;;5.70;;
37527;SDS011;23372;52.050;4.810;2023-10-31T00:24:12;15.60;;;6.10;;
37527;SDS011;23372;52.050;4.810;2023-10-31T00:26:38;19.40;;;7.97;;
37527;SDS011;23372;52.050;4.810;2023-10-31T00:29:03;18.50;;;8.90;;
37527;SDS011;23372;52.050;4.810;2023-10-31T00:31:29;23.20;;;9.50;;
37527;SDS011;23372;52.050;4.810;2023-10-31T00:33:54;19.43;;;9.43;;
37527;SDS011;23372;52.050;4.810;2023-10-31T00:36:20;27.83;;;11.53;;
37527;SDS011;23372;52.050;4.810;2023-10-31T00:38:46;23.83;;;10.80;;
37527;SDS011;23372;52.050;4.810;2023-10-31T00:41:11;22.77;;;9.90;;
37527;SDS011;23372;52.050;4.810;2023-10-31T00:43:37;24.93;;;10.27;;
37527;SDS011;23372;52.050;4.810;2023-10-31T00:46:03;23.30;;;10.77;;
37527;SDS011;23372;52.050;4.810;2023-10-31T00:48:29;23.87;;;10.37;;
37527;SDS011;23372;52.050;4.810;2023-10-31T00:51:01;22.50;;;9.83;;
37527;SDS011;23372;52.050;4.810;2023-10-31T00:53:29;25.57;;;11.00;;
37527;SDS011;23372;52.050;4.810;2023-10-31T00:55:55;25.37;;;11.57;;
37527;SDS011;23372;52.050;4.810;2023-10-31T00:58:20;29.33;;;12.97;;
37527;SDS011;23372;52.050;4.810;2023-10-31T01:00:46;26.17;;;13.07;;
37527;SDS011;23372;52.050;4.810;2023-10-31T01:03:12;24.10;;;12.73;;
37527;SDS011;23372;52.050;4.810;2023-10-31T01:05:37;25.53;;;13.37;;
37527;SDS011;23372;52.050;4.810;2023-10-31T01:08:03;29.63;;;13.90;;
37527;SDS011;23372;52.050;4.810;2023-10-31T01:10:28;24.07;;;14.17;;
37527;SDS011;23372;52.050;4.810;2023-10-31T01:12:54;26.70;;;13.37;;
37527;SDS011;23372;52.050;4.810;2023-10-31T01:15:19;22.70;;;13.27;;
37527;SDS011;23372;52.050;4.810;2023-10-31T01:17:45;18.70;;;10.67;;
37527;SDS011;23372;52.050;4.810;2023-10-31T01:20:11;17.20;;;10.63;;
37527;SDS011;23372;52.050;4.810;2023-10-31T01:22:37;19.57;;;9.97;;
37527;SDS011;23372;52.050;4.810;2023-10-31T01:25:02;18.10;;;8.20;;
37527;SDS011;23372;52.050;4.810;2023-10-31T01:27:28;17.30;;;8.67;;
37527;SDS011;23372;52.050;4.810;2023-10-31T01:29:54;18.30;;;8.80;;
37527;SDS011;23372;52.050;4.810;2023-10-31T01:32:19;14.60;;;8.13;;
37527;SDS011;23372;52.050;4.810;2023-10-31T01:34:45;16.63;;;9.30;;
37527;SDS011;23372;52.050;4.810;2023-10-31T01:37:10;19.10;;;9.93;;
37527;SDS011;23372;52.050;4.810;2023-10-31T01:39:36;17.37;;;9.47;;
37527;SDS011;23372;52.050;4.810;2023-10-31T01:42:02;20.70;;;9.30;;
37527;SDS011;23372;52.050;4.810;2023-10-31T01:44:27;17.23;;;8.83;;
37527;SDS011;23372;52.050;4.810;2023-10-31T01:46:53;22.40;;;8.77;;
37527;SDS011;23372;52.050;4.810;2023-10-31T01:49:18;19.63;;;8.67;;
37527;SDS011;23372;52.050;4.810;2023-10-31T01:51:44;17.73;;;8.70;;
37527;SDS011;23372;52.050;4.810;2023-10-31T01:54:10;12.20;;;8.00;;
37527;SDS011;23372;52.050;4.810;2023-10-31T01:56:37;20.97;;;7.90;;
37527;SDS011;23372;52.050;4.810;2023-10-31T01:59:07;13.37;;;6.93;;
37527;SDS011;23372;52.050;4.810;2023-10-31T02:01:35;14.80;;;7.17;;
37527;SDS011;23372;52.050;4.810;2023-10-31T02:04:04;50.23;;;8.17;;
37527;SDS011;23372;52.050;4.810;2023-10-31T02:06:30;12.20;;;5.13;;
37527;SDS011;23372;52.050;4.810;2023-10-31T02:08:56;13.50;;;5.77;;
37527;SDS011;23372;52.050;4.810;2023-10-31T02:11:21;10.67;;;4.07;;
37527;SDS011;23372;52.050;4.810;2023-10-31T02:13:47;10.40;;;4.10;;
37527;SDS011;23372;52.050;4.810;2023-10-31T02:16:12;12.03;;;4.37;;
37527;SDS011;23372;52.050;4.810;2023-10-31T02:18:39;6.83;;;3.87;;
37527;SDS011;23372;52.050;4.810;2023-10-31T02:21:04;11.40;;;3.70;;
37527;SDS011;23372;52.050;4.810;2023-10-31T02:23:30;10.63;;;3.73;;
37527;SDS011;23372;52.050;4.810;2023-10-31T02:25:57;7.20;;;3.77;;
37527;SDS011;23372;52.050;4.810;2023-10-31T02:28:22;7.73;;;3.63;;
37527;SDS011;23372;52.050;4.810;2023-10-31T02:30:52;8.43;;;3.87;;
37527;SDS011;23372;52.050;4.810;2023-10-31T02:33:19;11.60;;;4.00;;
37527;SDS011;23372;52.050;4.810;2023-10-31T02:35:45;8.60;;;3.87;;
37527;SDS011;23372;52.050;4.810;2023-10-31T02:38:10;6.60;;;4.00;;
37527;SDS011;23372;52.050;4.810;2023-10-31T02:40:36;9.53;;;3.70;;
37527;SDS011;23372;52.050;4.810;2023-10-31T02:43:02;10.97;;;4.13;;
37527;SDS011;23372;52.050;4.810;2023-10-31T02:45:27;6.83;;;3.40;;
37527;SDS011;23372;52.050;4.810;2023-10-31T02:47:53;8.87;;;3.47;;
37527;SDS011;23372;52.050;4.810;2023-10-31T02:50:18;9.13;;;4.17;;
37527;SDS011;23372;52.050;4.810;2023-10-31T02:52:44;7.83;;;3.03;;
37527;SDS011;23372;52.050;4.810;2023-10-31T02:55:09;5.77;;;2.60;;
37527;SDS011;23372;52.050;4.810;2023-10-31T02:57:35;4.73;;;1.80;;
37527;SDS011;23372;52.050;4.810;2023-10-31T03:00:00;5.13;;;1.50;;
37527;SDS011;23372;52.050;4.810;2023-10-31T03:02:27;4.90;;;1.40;;
37527;SDS011;23372;52.050;4.810;2023-10-31T03:04:52;5.50;;;1.33;;
37527;SDS011;23372;52.050;4.810;2023-10-31T03:07:18;7.93;;;1.80;;
37527;SDS011;23372;52.050;4.810;2023-10-31T03:09:43;7.70;;;2.67;;
37527;SDS011;23372;52.050;4.810;2023-10-31T03:12:09;5.23;;;2.37;;
37527;SDS011;23372;52.050;4.810;2023-10-31T03:14:35;9.77;;;2.43;;
37527;SDS011;23372;52.050;4.810;2023-10-31T03:17:00;10.47;;;2.90;;
37527;SDS011;23372;52.050;4.810;2023-10-31T03:19:26;5.33;;;2.43;;
37527;SDS011;23372;52.050;4.810;2023-10-31T03:21:51;8.93;;;2.97;;
37527;SDS011;23372;52.050;4.810;2023-10-31T03:24:17;5.10;;;1.73;;
37527;SDS011;23372;52.050;4.810;2023-10-31T03:26:42;5.30;;;1.47;;
37527;SDS011;23372;52.050;4.810;2023-10-31T03:29:08;5.77;;;1.50;;
37527;SDS011;23372;52.050;4.810;2023-10-31T03:31:34;6.27;;;1.00;;
37527;SDS011;23372;52.050;4.810;2023-10-31T03:34:00;3.57;;;0.90;;
37527;SDS011;23372;52.050;4.810;2023-10-31T03:36:25;3.90;;;1.80;;
37527;SDS011;23372;52.050;4.810;2023-10-31T03:38:51;2.63;;;0.60;;
37527;SDS011;23372;52.050;4.810;2023-10-31T03:41:16;1.40;;;0.40;;
37527;SDS011;23372;52.050;4.810;2023-10-31T03:43:42;2.33;;;0.30;;
37527;SDS011;23372;52.050;4.810;2023-10-31T03:46:07;3.13;;;0.43;;
37527;SDS011;23372;52.050;4.810;2023-10-31T03:48:33;4.67;;;0.40;;
37527;SDS011;23372;52.050;4.810;2023-10-31T03:50:58;4.27;;;0.30;;
37527;SDS011;23372;52.050;4.810;2023-10-31T03:53:24;3.63;;;0.60;;
37527;SDS011;23372;52.050;4.810;2023-10-31T03:55:49;9.80;;;1.53;;
37527;SDS011;23372;52.050;4.810;2023-10-31T03:58:15;3.63;;;0.77;;
37527;SDS011;23372;52.050;4.810;2023-10-31T04:00:42;2.20;;;0.60;;
37527;SDS011;23372;52.050;4.810;2023-10-31T04:03:07;3.97;;;1.00;;
37527;SDS011;23372;52.050;4.810;2023-10-31T04:05:33;4.53;;;1.07;;
37527;SDS011;23372;52.050;4.810;2023-10-31T04:07:59;3.23;;;0.90;;
37527;SDS011;23372;52.050;4.810;2023-10-31T04:10:25;4.90;;;1.40;;
37527;SDS011;23372;52.050;4.810;2023-10-31T04:12:51;4.73;;;1.00;;
37527;SDS011;23372;52.050;4.810;2023-10-31T04:15:17;5.00;;;1.17;;
37527;SDS011;23372;52.050;4.810;2023-10-31T04:17:42;5.80;;;1.20;;
37527;SDS011;23372;52.050;4.810;2023-10-31T04:20:08;3.10;;;1.17;;
37527;SDS011;23372;52.050;4.810;2023-10-31T04:22:34;5.80;;;1.83;;
37527;SDS011;23372;52.050;4.810;2023-10-31T04:24:59;4.83;;;1.90;;
37527;SDS011;23372;52.050;4.810;2023-10-31T04:27:25;7.03;;;2.47;;
37527;SDS011;23372;52.050;4.810;2023-10-31T04:29:50;9.23;;;3.20;;
37527;SDS011;23372;52.050;4.810;2023-10-31T04:32:16;4.30;;;2.10;;
37527;SDS011;23372;52.050;4.810;2023-10-31T04:34:41;3.40;;;1.70;;
37527;SDS011;23372;52.050;4.810;2023-10-31T04:37:08;8.13;;;2.53;;
37527;SDS011;23372;52.050;4.810;2023-10-31T04:39:34;4.60;;;1.90;;
37527;SDS011;23372;52.050;4.810;2023-10-31T04:42:00;3.93;;;1.90;;
37527;SDS011;23372;52.050;4.810;2023-10-31T04:44:25;3.00;;;1.73;;
37527;SDS011;23372;52.050;4.810;2023-10-31T04:46:51;4.33;;;1.83;;
37527;SDS011;23372;52.050;4.810;2023-10-31T04:49:16;4.00;;;1.70;;
37527;SDS011;23372;52.050;4.810;2023-10-31T04:51:42;2.13;;;1.50;;
37527;SDS011;23372;52.050;4.810;2023-10-31T04:54:08;4.93;;;1.30;;
37527;SDS011;23372;52.050;4.810;2023-10-31T04:56:34;2.53;;;1.50;;
37527;SDS011;23372;52.050;4.810;2023-10-31T04:58:59;5.43;;;1.33;;
37527;SDS011;23372;52.050;4.810;2023-10-31T05:01:25;6.43;;;1.40;;
37527;SDS011;23372;52.050;4.810;2023-10-31T05:03:50;3.70;;;1.23;;
37527;SDS011;23372;52.050;4.810;2023-10-31T05:06:20;8.63;;;1.40;;
37527;SDS011;23372;52.050;4.810;2023-10-31T05:08:46;2.47;;;0.80;;
37527;SDS011;23372;52.050;4.810;2023-10-31T05:11:12;4.70;;;1.07;;
37527;SDS011;23372;52.050;4.810;2023-10-31T05:13:38;5.27;;;1.70;;
37527;SDS011;23372;52.050;4.810;2023-10-31T05:16:04;7.07;;;2.40;;
37527;SDS011;23372;52.050;4.810;2023-10-31T05:18:30;11.97;;;3.87;;
37527;SDS011;23372;52.050;4.810;2023-10-31T05:20:56;10.87;;;4.23;;
37527;SDS011;23372;52.050;4.810;2023-10-31T05:23:21;8.17;;;4.27;;
37527;SDS011;23372;52.050;4.810;2023-10-31T05:25:47;10.57;;;4.30;;
37527;SDS011;23372;52.050;4.810;2023-10-31T05:28:12;10.47;;;4.80;;
37527;SDS011;23372;52.050;4.810;2023-10-31T05:30:38;9.00;;;4.83;;
37527;SDS011;23372;52.050;4.810;2023-10-31T05:33:04;13.07;;;5.30;;
37527;SDS011;23372;52.050;4.810;2023-10-31T05:35:29;9.00;;;4.60;;
37527;SDS011;23372;52.050;4.810;2023-10-31T05:37:55;10.97;;;5.00;;
37527;SDS011;23372;52.050;4.810;2023-10-31T05:40:20;8.63;;;3.70;;
37527;SDS011;23372;52.050;4.810;2023-10-31T05:42:49;5.83;;;3.30;;
37527;SDS011;23372;52.050;4.810;2023-10-31T05:45:15;6.73;;;2.90;;
37527;SDS011;23372;52.050;4.810;2023-10-31T05:47:41;7.13;;;2.50;;
37527;SDS011;23372;52.050;4.810;2023-10-31T05:50:07;5.83;;;2.37;;
37527;SDS011;23372;52.050;4.810;2023-10-31T05:52:32;6.70;;;1.83;;
37527;SDS011;23372;52.050;4.810;2023-10-31T05:54:58;7.90;;;1.80;;
37527;SDS011;23372;52.050;4.810;2023-10-31T05:57:23;5.60;;;1.80;;
37527;SDS011;23372;52.050;4.810;2023-10-31T05:59:49;3.77;;;1.30;;
37527;SDS011;23372;52.050;4.810;2023-10-31T06:02:15;3.40;;;0.90;;
37527;SDS011;23372;52.050;4.810;2023-10-31T06:04:40;4.67;;;1.00;;
37527;SDS011;23372;52.050;4.810;2023-10-31T06:07:06;4.10;;;1.40;;
37527;SDS011;23372;52.050;4.810;2023-10-31T06:09:32;5.33;;;1.00;;
37527;SDS011;23372;52.050;4.810;2023-10-31T06:12:01;4.13;;;1.17;;
37527;SDS011;23372;52.050;4.810;2023-10-31T06:14:26;3.33;;;1.30;;
37527;SDS011;23372;52.050;4.810;2023-10-31T06:16:52;1.90;;;1.07;;
37527;SDS011;23372;52.050;4.810;2023-10-31T06:19:18;7.70;;;1.30;;
37527;SDS011;23372;52.050;4.810;2023-10-31T06:21:44;5.37;;;1.70;;
37527;SDS011;23372;52.050;4.810;2023-10-31T06:24:10;3.10;;;1.70;;
37527;SDS011;23372;52.050;4.810;2023-10-31T06:26:35;5.13;;;1.53;;
37527;SDS011;23372;52.050;4.810;2023-10-31T06:29:01;4.70;;;1.60;;
37527;SDS011;23372;52.050;4.810;2023-10-31T06:31:26;8.17;;;1.60;;
37527;SDS011;23372;52.050;4.810;2023-10-31T06:33:52;3.63;;;1.50;;
37527;SDS011;23372;52.050;4.810;2023-10-31T06:36:17;3.27;;;1.27;;
37527;SDS011;23372;52.050;4.810;2023-10-31T06:38:43;5.87;;;1.43;;
37527;SDS011;23372;52.050;4.810;2023-10-31T06:41:08;2.20;;;1.20;;
37527;SDS011;23372;52.050;4.810;2023-10-31T06:43:34;3.63;;;1.20;;
37527;SDS011;23372;52.050;4.810;2023-10-31T06:46:00;4.83;;;1.63;;
37527;SDS011;23372;52.050;4.810;2023-10-31T06:48:28;1.93;;;1.10;;
37527;SDS011;23372;52.050;4.810;2023-10-31T06:50:53;1.97;;;0.83;;
37527;SDS011;23372;52.050;4.810;2023-10-31T06:53:19;3.10;;;0.80;;
37527;SDS011;23372;52.050;4.810;2023-10-31T06:55:44;7.43;;;1.40;;
37527;SDS011;23372;52.050;4.810;2023-10-31T06:58:10;2.17;;;0.90;;
37527;SDS011;23372;52.050;4.810;2023-10-31T07:00:35;2.70;;;0.93;;
37527;SDS011;23372;52.050;4.810;2023-10-31T07:03:02;4.60;;;1.37;;
37527;SDS011;23372;52.050;4.810;2023-10-31T07:05:31;4.67;;;1.23;;
37527;SDS011;23372;52.050;4.810;2023-10-31T07:07:57;1.77;;;0.90;;
37527;SDS011;23372;52.050;4.810;2023-10-31T07:10:24;4.87;;;0.83;;
37527;SDS011;23372;52.050;4.810;2023-10-31T07:12:49;3.10;;;1.03;;
37527;SDS011;23372;52.050;4.810;2023-10-31T07:15:15;4.43;;;1.33;;
37527;SDS011;23372;52.050;4.810;2023-10-31T07:17:40;4.57;;;1.27;;
37527;SDS011;23372;52.050;4.810;2023-10-31T07:20:06;5.30;;;1.10;;
37527;SDS011;23372;52.050;4.810;2023-10-31T07:22:32;4.67;;;1.60;;
37527;SDS011;23372;52.050;4.810;2023-10-31T07:24:59;6.63;;;1.43;;
37527;SDS011;23372;52.050;4.810;2023-10-31T07:27:27;4.03;;;1.30;;
37527;SDS011;23372;52.050;4.810;2023-10-31T07:29:53;4.10;;;1.60;;
37527;SDS011;23372;52.050;4.810;2023-10-31T07:32:18;6.33;;;1.93;;
37527;SDS011;23372;52.050;4.810;2023-10-31T07:34:44;4.00;;;1.93;;
37527;SDS011;23372;52.050;4.810;2023-10-31T07:37:09;5.67;;;2.27;;
37527;SDS011;23372;52.050;4.810;2023-10-31T07:39:35;3.60;;;1.80;;
37527;SDS011;23372;52.050;4.810;2023-10-31T07:42:01;5.80;;;2.47;;
37527;SDS011;23372;52.050;4.810;2023-10-31T07:44:26;7.50;;;2.20;;
37527;SDS011;23372;52.050;4.810;2023-10-31T07:46:52;6.53;;;2.43;;
37527;SDS011;23372;52.050;4.810;2023-10-31T07:49:17;4.37;;;2.30;;
37527;SDS011;23372;52.050;4.810;2023-10-31T07:51:43;5.23;;;2.60;;
37527;SDS011;23372;52.050;4.810;2023-10-31T07:54:10;4.60;;;2.30;;
37527;SDS011;23372;52.050;4.810;2023-10-31T07:56:37;6.17;;;2.50;;
37527;SDS011;23372;52.050;4.810;2023-10-31T07:59:03;7.43;;;3.13;;
37527;SDS011;23372;52.050;4.810;2023-10-31T08:01:29;8.40;;;2.70;;
37527;SDS011;23372;52.050;4.810;2023-10-31T08:03:54;8.13;;;3.10;;
37527;SDS011;23372;52.050;4.810;2023-10-31T08:06:20;7.80;;;2.80;;
37527;SDS011;23372;52.050;4.810;2023-10-31T08:08:45;6.30;;;3.10;;
37527;SDS011;23372;52.050;4.810;2023-10-31T08:11:11;11.17;;;3.57;;
37527;SDS011;23372;52.050;4.810;2023-10-31T08:13:39;8.70;;;3.45;;
37527;SDS011;23372;52.050;4.810;2023-10-31T08:16:05;11.30;;;4.82;;
37527;SDS011;23372;52.050;4.810;2023-10-31T08:18:32;4.72;;;2.47;;
37527;SDS011;23372;52.050;4.810;2023-10-31T08:20:58;9.65;;;2.95;;
37527;SDS011;23372;52.050;4.810;2023-10-31T08:23:24;6.22;;;2.92;;
37527;SDS011;23372;52.050;4.810;2023-10-31T08:25:50;8.07;;;3.45;;
37527;SDS011;23372;52.050;4.810;2023-10-31T08:28:15;6.65;;;2.58;;
37527;SDS011;23372;52.050;4.810;2023-10-31T08:30:41;6.18;;;2.72;;
37527;SDS011;23372;52.050;4.810;2023-10-31T08:33:07;5.05;;;3.00;;
37527;SDS011;23372;52.050;4.810;2023-10-31T08:35:32;4.95;;;2.35;;
37527;SDS011;23372;52.050;4.810;2023-10-31T08:37:58;8.70;;;2.90;;
37527;SDS011;23372;52.050;4.810;2023-10-31T08:40:23;10.65;;;2.90;;
37527;SDS011;23372;52.050;4.810;2023-10-31T08:42:49;7.60;;;3.45;;
37527;SDS011;23372;52.050;4.810;2023-10-31T08:45:15;8.98;;;3.25;;
37527;SDS011;23372;52.050;4.810;2023-10-31T08:47:40;21.88;;;4.38;;
37527;SDS011;23372;52.050;4.810;2023-10-31T08:50:06;11.85;;;3.85;;
37527;SDS011;23372;52.050;4.810;2023-10-31T08:52:36;9.48;;;3.88;;
37527;SDS011;23372;52.050;4.810;2023-10-31T08:55:02;12.43;;;5.10;;
37527;SDS011;23372;52.050;4.810;2023-10-31T08:57:28;17.23;;;5.82;;
37527;SDS011;23372;52.050;4.810;2023-10-31T08:59:54;11.90;;;4.78;;
37527;SDS011;23372;52.050;4.810;2023-10-31T09:02:20;13.63;;;5.20;;
37527;SDS011;23372;52.050;4.810;2023-10-31T09:04:45;9.30;;;5.22;;
37527;SDS011;23372;52.050;4.810;2023-10-31T09:07:11;9.48;;;4.50;;
37527;SDS011;23372;52.050;4.810;2023-10-31T09:09:36;14.25;;;4.95;;
37527;SDS011;23372;52.050;4.810;2023-10-31T09:12:02;8.07;;;4.25;;
37527;SDS011;23372;52.050;4.810;2023-10-31T09:14:28;6.72;;;3.30;;
37527;SDS011;23372;52.050;4.810;2023-10-31T09:16:53;8.18;;;3.47;;
37527;SDS011;23372;52.050;4.810;2023-10-31T09:19:19;11.00;;;3.67;;
37527;SDS011;23372;52.050;4.810;2023-10-31T09:21:44;10.60;;;4.10;;
37527;SDS011;23372;52.050;4.810;2023-10-31T09:24:10;14.77;;;5.45;;
37527;SDS011;23372;52.050;4.810;2023-10-31T09:26:36;10.38;;;5.00;;
37527;SDS011;23372;52.050;4.810;2023-10-31T09:29:02;9.95;;;4.00;;
37527;SDS011;23372;52.050;4.810;2023-10-31T09:31:28;8.77;;;4.05;;
37527;SDS011;23372;52.050;4.810;2023-10-31T09:33:54;12.82;;;4.65;;
37527;SDS011;23372;52.050;4.810;2023-10-31T09:36:19;12.35;;;4.80;;
37527;SDS011;23372;52.050;4.810;2023-10-31T09:38:45;12.15;;;4.57;;
37527;SDS011;23372;52.050;4.810;2023-10-31T09:41:12;7.90;;;4.15;;
37527;SDS011;23372;52.050;4.810;2023-10-31T09:43:38;7.95;;;4.28;;
37527;SDS011;23372;52.050;4.810;2023-10-31T09:46:04;17.13;;;4.65;;
37527;SDS011;23372;52.050;4.810;2023-10-31T09:48:31;11.20;;;4.75;;
37527;SDS011;23372;52.050;4.810;2023-10-31T09:50:57;14.23;;;4.72;;
37527;SDS011;23372;52.050;4.810;2023-10-31T09:53:23;10.48;;;4.78;;
37527;SDS011;23372;52.050;4.810;2023-10-31T09:55:49;14.05;;;4.15;;
37527;SDS011;23372;52.050;4.810;2023-10-31T09:58:16;7.20;;;3.72;;
37527;SDS011;23372;52.050;4.810;2023-10-31T10:00:42;10.00;;;4.05;;
37527;SDS011;23372;52.050;4.810;2023-10-31T10:03:08;7.53;;;3.80;;
37527;SDS011;23372;52.050;4.810;2023-10-31T10:05:36;11.68;;;4.20;;
37527;SDS011;23372;52.050;4.810;2023-10-31T10:08:03;10.77;;;3.60;;
37527;SDS011;23372;52.050;4.810;2023-10-31T10:10:29;8.57;;;2.80;;
37527;SDS011;23372;52.050;4.810;2023-10-31T10:12:56;9.10;;;3.03;;
37527;SDS011;23372;52.050;4.810;2023-10-31T10:15:23;4.90;;;1.88;;
37527;SDS011;23372;52.050;4.810;2023-10-31T10:17:49;9.70;;;2.65;;
37527;SDS011;23372;52.050;4.810;2023-10-31T10:20:16;7.90;;;2.17;;
37527;SDS011;23372;52.050;4.810;2023-10-31T10:22:43;8.70;;;1.83;;
37527;SDS011;23372;52.050;4.810;2023-10-31T10:25:09;8.20;;;1.80;;
37527;SDS011;23372;52.050;4.810;2023-10-31T10:27:43;8.00;;;1.88;;
37527;SDS011;23372;52.050;4.810;2023-10-31T10:30:10;5.47;;;1.45;;
37527;SDS011;23372;52.050;4.810;2023-10-31T10:32:38;7.25;;;1.88;;
37527;SDS011;23372;52.050;4.810;2023-10-31T10:35:04;14.98;;;2.28;;
37527;SDS011;23372;52.050;4.810;2023-10-31T10:37:30;6.63;;;2.63;;
37527;SDS011;23372;52.050;4.810;2023-10-31T10:39:56;8.30;;;2.20;;
37527;SDS011;23372;52.050;4.810;2023-10-31T10:42:31;7.15;;;2.35;;
37527;SDS011;23372;52.050;4.810;2023-10-31T10:45:01;7.32;;;2.63;;
37527;SDS011;23372;52.050;4.810;2023-10-31T10:47:28;9.80;;;2.85;;
37527;SDS011;23372;52.050;4.810;2023-10-31T10:49:58;14.30;;;3.33;;
37527;SDS011;23372;52.050;4.810;2023-10-31T10:52:30;11.57;;;2.58;;
37527;SDS011;23372;52.050;4.810;2023-10-31T10:55:13;7.60;;;2.60;;
37527;SDS011;23372;52.050;4.810;2023-10-31T10:58:00;5.60;;;3.00;;
37527;SDS011;23372;52.050;4.810;2023-10-31T11:00:30;10.15;;;2.58;;
37527;SDS011;23372;52.050;4.810;2023-10-31T11:02:56;9.80;;;3.90;;
37527;SDS011;23372;52.050;4.810;2023-10-31T11:05:25;9.80;;;4.45;;
37527;SDS011;23372;52.050;4.810;2023-10-31T11:07:51;12.57;;;5.00;;
37527;SDS011;23372;52.050;4.810;2023-10-31T11:10:18;10.25;;;5.80;;
37527;SDS011;23372;52.050;4.810;2023-10-31T11:12:44;12.10;;;5.55;;
37527;SDS011;23372;52.050;4.810;2023-10-31T11:15:11;10.95;;;5.80;;
37527;SDS011;23372;52.050;4.810;2023-10-31T11:17:41;8.98;;;7.00;;
37527;SDS011;23372;52.050;4.810;2023-10-31T11:20:10;15.50;;;9.18;;
37527;SDS011;23372;52.050;4.810;2023-10-31T11:22:40;18.60;;;10.75;;
37527;SDS011;23372;52.050;4.810;2023-10-31T11:25:12;20.92;;;13.07;;
37527;SDS011;23372;52.050;4.810;2023-10-31T11:27:39;18.60;;;13.18;;
37527;SDS011;23372;52.050;4.810;2023-10-31T11:30:09;26.08;;;14.80;;
37527;SDS011;23372;52.050;4.810;2023-10-31T11:32:53;22.17;;;14.68;;
37527;SDS011;23372;52.050;4.810;2023-10-31T11:35:19;28.27;;;16.45;;
37527;SDS011;23372;52.050;4.810;2023-10-31T11:37:48;24.38;;;16.90;;
37527;SDS011;23372;52.050;4.810;2023-10-31T11:40:19;26.67;;;16.98;;
37527;SDS011;23372;52.050;4.810;2023-10-31T11:42:52;26.98;;;16.83;;
37527;SDS011;23372;52.050;4.810;2023-10-31T11:48:16;31.63;;;17.88;;
37527;SDS011;23372;52.050;4.810;2023-10-31T11:50:42;33.55;;;16.85;;
37527;SDS011;23372;52.050;4.810;2023-10-31T11:53:12;31.10;;;17.98;;
37527;SDS011;23372;52.050;4.810;2023-10-31T11:55:45;26.63;;;17.02;;
37527;SDS011;23372;52.050;4.810;2023-10-31T11:58:21;28.30;;;16.48;;
37527;SDS011;23372;52.050;4.810;2023-10-31T12:00:49;26.30;;;17.00;;
37527;SDS011;23372;52.050;4.810;2023-10-31T12:03:19;29.33;;;17.13;;
37527;SDS011;23372;52.050;4.810;2023-10-31T12:05:53;26.92;;;17.25;;
37527;SDS011;23372;52.050;4.810;2023-10-31T12:08:29;27.33;;;16.05;;
37527;SDS011;23372;52.050;4.810;2023-10-31T12:13:32;22.17;;;13.27;;
37527;SDS011;23372;52.050;4.810;2023-10-31T12:15:58;22.08;;;12.70;;
37527;SDS011;23372;52.050;4.810;2023-10-31T12:18:26;21.23;;;11.77;;
37527;SDS011;23372;52.050;4.810;2023-10-31T12:20:52;18.13;;;11.10;;
37527;SDS011;23372;52.050;4.810;2023-10-31T12:23:18;18.20;;;11.45;;
37527;SDS011;23372;52.050;4.810;2023-10-31T12:25:50;22.00;;;12.02;;
37527;SDS011;23372;52.050;4.810;2023-10-31T12:28:16;18.63;;;11.63;;
37527;SDS011;23372;52.050;4.810;2023-10-31T12:30:49;18.27;;;11.13;;
37527;SDS011;23372;52.050;4.810;2023-10-31T12:33:19;21.83;;;10.60;;
37527;SDS011;23372;52.050;4.810;2023-10-31T12:35:46;19.27;;;11.23;;
37527;SDS011;23372;52.050;4.810;2023-10-31T12:38:13;18.73;;;12.35;;
37527;SDS011;23372;52.050;4.810;2023-10-31T12:40:41;20.63;;;11.57;;
37527;SDS011;23372;52.050;4.810;2023-10-31T12:43:08;22.00;;;11.40;;
37527;SDS011;23372;52.050;4.810;2023-10-31T12:45:35;21.50;;;13.23;;
37527;SDS011;23372;52.050;4.810;2023-10-31T12:48:04;22.55;;;12.90;;
37527;SDS011;23372;52.050;4.810;2023-10-31T12:50:35;21.20;;;13.43;;
37527;SDS011;23372;52.050;4.810;2023-10-31T12:53:08;23.10;;;14.93;;
37527;SDS011;23372;52.050;4.810;2023-10-31T12:55:40;23.38;;;14.70;;
37527;SDS011;23372;52.050;4.810;2023-10-31T12:58:07;21.80;;;12.82;;
37527;SDS011;23372;52.050;4.810;2023-10-31T13:00:35;24.90;;;13.38;;
37527;SDS011;23372;52.050;4.810;2023-10-31T13:05:28;20.67;;;13.80;;
37527;SDS011;23372;52.050;4.810;2023-10-31T13:07:55;21.88;;;14.07;;
37527;SDS011;23372;52.050;4.810;2023-10-31T13:10:22;25.25;;;15.25;;
37527;SDS011;23372;52.050;4.810;2023-10-31T13:12:49;23.63;;;15.93;;
37527;SDS011;23372;52.050;4.810;2023-10-31T13:15:16;28.02;;;16.73;;
37527;SDS011;23372;52.050;4.810;2023-10-31T13:17:47;26.45;;;16.48;;
37527;SDS011;23372;52.050;4.810;2023-10-31T13:20:14;25.05;;;16.80;;
37527;SDS011;23372;52.050;4.810;2023-10-31T13:22:41;29.60;;;17.48;;
37527;SDS011;23372;52.050;4.810;2023-10-31T13:25:08;29.20;;;19.02;;
37527;SDS011;23372;52.050;4.810;2023-10-31T13:27:36;34.03;;;20.50;;
37527;SDS011;23372;52.050;4.810;2023-10-31T13:30:02;37.25;;;24.88;;
37527;SDS011;23372;52.050;4.810;2023-10-31T13:32:28;39.72;;;24.15;;
37527;SDS011;23372;52.050;4.810;2023-10-31T13:34:54;44.55;;;25.20;;
37527;SDS011;23372;52.050;4.810;2023-10-31T13:37:20;39.42;;;23.80;;
37527;SDS011;23372;52.050;4.810;2023-10-31T13:39:45;41.67;;;24.48;;
37527;SDS011;23372;52.050;4.810;2023-10-31T13:42:11;38.15;;;23.13;;
37527;SDS011;23372;52.050;4.810;2023-10-31T13:44:38;40.58;;;23.08;;
37527;SDS011;23372;52.050;4.810;2023-10-31T13:47:04;38.63;;;24.25;;
37527;SDS011;23372;52.050;4.810;2023-10-31T13:49:30;34.67;;;22.88;;
37527;SDS011;23372;52.050;4.810;2023-10-31T13:51:56;36.22;;;22.60;;
37527;SDS011;23372;52.050;4.810;2023-10-31T13:54:21;37.00;;;21.80;;
37527;SDS011;23372;52.050;4.810;2023-10-31T13:56:47;33.88;;;21.20;;
37527;SDS011;23372;52.050;4.810;2023-10-31T13:59:13;33.88;;;21.83;;
37527;SDS011;23372;52.050;4.810;2023-10-31T14:01:39;34.15;;;21.42;;
37527;SDS011;23372;52.050;4.810;2023-10-31T14:04:06;33.15;;;20.85;;
37527;SDS011;23372;52.050;4.810;2023-10-31T14:06:32;33.58;;;21.05;;
37527;SDS011;23372;52.050;4.810;2023-10-31T14:08:58;30.52;;;18.70;;
37527;SDS011;23372;52.050;4.810;2023-10-31T14:11:25;30.88;;;19.08;;
37527;SDS011;23372;52.050;4.810;2023-10-31T14:13:50;26.73;;;17.85;;
37527;SDS011;23372;52.050;4.810;2023-10-31T14:16:17;27.70;;;17.80;;
37527;SDS011;23372;52.050;4.810;2023-10-31T14:18:42;28.60;;;16.80;;
37527;SDS011;23372;52.050;4.810;2023-10-31T14:21:08;26.80;;;18.08;;
37527;SDS011;23372;52.050;4.810;2023-10-31T14:23:34;28.70;;;15.32;;
37527;SDS011;23372;52.050;4.810;2023-10-31T14:26:00;22.02;;;14.02;;
37527;SDS011;23372;52.050;4.810;2023-10-31T14:28:25;27.77;;;15.57;;
37527;SDS011;23372;52.050;4.810;2023-10-31T14:30:51;22.63;;;13.52;;
37527;SDS011;23372;52.050;4.810;2023-10-31T14:33:19;19.83;;;12.10;;
37527;SDS011;23372;52.050;4.810;2023-10-31T14:35:45;16.67;;;9.82;;
37527;SDS011;23372;52.050;4.810;2023-10-31T14:38:11;15.40;;;9.88;;
37527;SDS011;23372;52.050;4.810;2023-10-31T14:40:36;13.73;;;9.00;;
37527;SDS011;23372;52.050;4.810;2023-10-31T14:43:02;17.25;;;8.88;;